sensor_id;sensor_type;location;lat;lon;timestamp;P1;durP1;ratioP1;P2;durP2;ratioP2
21492;SDS011;10908;50.690;4.400;2022-08-05T00:02:09;13.98;;;6.07;;
21492;SDS011;10908;50.690;4.400;2022-08-05T00:04:35;11.48;;;5.93;;
21492;SDS011;10908;50.690;4.400;2022-08-05T00:07:00;11.93;;;6.45;;
21492;SDS011;10908;50.690;4.400;2022-08-05T00:09:26;10.00;;;5.63;;
21492;SDS011;10908;50.690;4.400;2022-08-05T00:11:52;12.73;;;5.43;;
21492;SDS011;10908;50.690;4.400;2022-08-05T00:14:17;14.98;;;6.10;;
21492;SDS011;10908;50.690;4.400;2022-08-05T00:16:43;11.90;;;5.82;;
21492;SDS011;10908;50.690;4.400;2022-08-05T00:19:10;10.63;;;5.28;;
21492;SDS011;10908;50.690;4.400;2022-08-05T00:21:35;13.52;;;5.68;;
21492;SDS011;10908;50.690;4.400;2022-08-05T00:24:01;12.95;;;5.72;;
21492;SDS011;10908;50.690;4.400;2022-08-05T00:26:27;16.27;;;6.38;;
21492;SDS011;10908;50.690;4.400;2022-08-05T00:28:53;17.42;;;6.65;;
21492;SDS011;10908;50.690;4.400;2022-08-05T00:31:18;13.45;;;6.05;;
21492;SDS011;10908;50.690;4.400;2022-08-05T00:33:44;14.13;;;6.43;;
21492;SDS011;10908;50.690;4.400;2022-08-05T00:36:10;13.25;;;6.63;;
21492;SDS011;10908;50.690;4.400;2022-08-05T00:38:35;13.40;;;6.57;;
21492;SDS011;10908;50.690;4.400;2022-08-05T00:41:03;15.05;;;7.18;;
21492;SDS011;10908;50.690;4.400;2022-08-05T00:43:31;16.65;;;7.30;;
21492;SDS011;10908;50.690;4.400;2022-08-05T00:45:58;11.93;;;7.30;;
21492;SDS011;10908;50.690;4.400;2022-08-05T00:48:23;13.80;;;6.70;;
21492;SDS011;10908;50.690;4.400;2022-08-05T00:50:50;12.40;;;5.95;;
21492;SDS011;10908;50.690;4.400;2022-08-05T00:53:20;10.30;;;5.63;;
21492;SDS011;10908;50.690;4.400;2022-08-05T00:55:47;12.02;;;6.35;;
21492;SDS011;10908;50.690;4.400;2022-08-05T00:58:14;13.25;;;6.47;;
21492;SDS011;10908;50.690;4.400;2022-08-05T01:00:43;13.07;;;6.40;;
21492;SDS011;10908;50.690;4.400;2022-08-05T01:03:10;14.55;;;7.35;;
21492;SDS011;10908;50.690;4.400;2022-08-05T01:05:36;13.50;;;7.60;;
21492;SDS011;10908;50.690;4.400;2022-08-05T01:08:02;14.57;;;7.65;;
21492;SDS011;10908;50.690;4.400;2022-08-05T01:10:34;14.27;;;7.45;;
21492;SDS011;10908;50.690;4.400;2022-08-05T01:15:59;13.90;;;6.22;;
21492;SDS011;10908;50.690;4.400;2022-08-05T01:18:30;14.77;;;5.38;;
21492;SDS011;10908;50.690;4.400;2022-08-05T01:29:00;10.75;;;5.18;;
21492;SDS011;10908;50.690;4.400;2022-08-05T01:31:45;13.90;;;6.18;;
21492;SDS011;10908;50.690;4.400;2022-08-05T01:34:25;13.05;;;6.38;;
21492;SDS011;10908;50.690;4.400;2022-08-05T01:36:57;13.60;;;5.82;;
21492;SDS011;10908;50.690;4.400;2022-08-05T01:39:30;11.82;;;5.78;;
21492;SDS011;10908;50.690;4.400;2022-08-05T01:41:57;11.68;;;5.80;;
21492;SDS011;10908;50.690;4.400;2022-08-05T01:44:25;10.40;;;5.93;;
21492;SDS011;10908;50.690;4.400;2022-08-05T01:46:51;10.63;;;5.97;;
21492;SDS011;10908;50.690;4.400;2022-08-05T01:49:20;12.60;;;6.28;;
21492;SDS011;10908;50.690;4.400;2022-08-05T01:51:47;11.32;;;5.70;;
21492;SDS011;10908;50.690;4.400;2022-08-05T01:54:14;10.20;;;5.43;;
21492;SDS011;10908;50.690;4.400;2022-08-05T01:56:41;10.93;;;5.50;;
21492;SDS011;10908;50.690;4.400;2022-08-05T01:59:11;12.52;;;5.30;;
21492;SDS011;10908;50.690;4.400;2022-08-05T02:01:40;11.43;;;5.22;;
21492;SDS011;10908;50.690;4.400;2022-08-05T02:04:08;10.77;;;5.13;;
21492;SDS011;10908;50.690;4.400;2022-08-05T02:06:34;12.77;;;5.57;;
21492;SDS011;10908;50.690;4.400;2022-08-05T02:09:00;12.13;;;5.28;;
21492;SDS011;10908;50.690;4.400;2022-08-05T02:11:30;10.30;;;5.22;;
21492;SDS011;10908;50.690;4.400;2022-08-05T02:14:25;17.35;;;5.70;;
21492;SDS011;10908;50.690;4.400;2022-08-05T02:17:00;10.18;;;5.72;;
21492;SDS011;10908;50.690;4.400;2022-08-05T02:19:35;12.30;;;6.28;;
21492;SDS011;10908;50.690;4.400;2022-08-05T02:24:40;11.68;;;5.82;;
21492;SDS011;10908;50.690;4.400;2022-08-05T02:27:16;13.43;;;5.60;;
21492;SDS011;10908;50.690;4.400;2022-08-05T02:29:44;11.00;;;5.70;;
21492;SDS011;10908;50.690;4.400;2022-08-05T02:32:11;11.57;;;5.25;;
21492;SDS011;10908;50.690;4.400;2022-08-05T02:34:40;12.73;;;5.30;;
21492;SDS011;10908;50.690;4.400;2022-08-05T02:37:08;11.88;;;4.93;;
21492;SDS011;10908;50.690;4.400;2022-08-05T02:39:35;9.43;;;5.15;;
21492;SDS011;10908;50.690;4.400;2022-08-05T02:42:02;13.20;;;5.80;;
21492;SDS011;10908;50.690;4.400;2022-08-05T02:44:31;11.68;;;5.35;;
21492;SDS011;10908;50.690;4.400;2022-08-05T02:47:00;9.70;;;5.50;;
21492;SDS011;10908;50.690;4.400;2022-08-05T02:49:36;11.70;;;5.50;;
21492;SDS011;10908;50.690;4.400;2022-08-05T02:52:09;11.90;;;5.40;;
21492;SDS011;10908;50.690;4.400;2022-08-05T02:54:38;9.90;;;5.00;;
21492;SDS011;10908;50.690;4.400;2022-08-05T02:57:06;11.75;;;5.43;;
21492;SDS011;10908;50.690;4.400;2022-08-05T02:59:34;10.13;;;5.28;;
21492;SDS011;10908;50.690;4.400;2022-08-05T03:02:00;11.18;;;5.30;;
21492;SDS011;10908;50.690;4.400;2022-08-05T03:04:26;11.48;;;5.13;;
21492;SDS011;10908;50.690;4.400;2022-08-05T03:06:53;10.48;;;5.50;;
21492;SDS011;10908;50.690;4.400;2022-08-05T03:09:19;10.25;;;5.10;;
21492;SDS011;10908;50.690;4.400;2022-08-05T03:11:45;13.27;;;5.43;;
21492;SDS011;10908;50.690;4.400;2022-08-05T03:14:11;13.00;;;5.47;;
21492;SDS011;10908;50.690;4.400;2022-08-05T03:16:36;12.30;;;5.97;;
21492;SDS011;10908;50.690;4.400;2022-08-05T03:19:02;20.85;;;6.30;;
21492;SDS011;10908;50.690;4.400;2022-08-05T03:21:28;11.35;;;4.93;;
21492;SDS011;10908;50.690;4.400;2022-08-05T03:23:54;10.07;;;5.55;;
21492;SDS011;10908;50.690;4.400;2022-08-05T03:26:20;10.10;;;5.45;;
21492;SDS011;10908;50.690;4.400;2022-08-05T03:28:46;11.07;;;5.40;;
21492;SDS011;10908;50.690;4.400;2022-08-05T03:31:12;10.82;;;5.63;;
21492;SDS011;10908;50.690;4.400;2022-08-05T03:33:38;10.23;;;5.60;;
21492;SDS011;10908;50.690;4.400;2022-08-05T03:36:04;13.90;;;5.85;;
21492;SDS011;10908;50.690;4.400;2022-08-05T03:38:30;16.40;;;6.10;;
21492;SDS011;10908;50.690;4.400;2022-08-05T03:40:56;11.07;;;5.80;;
21492;SDS011;10908;50.690;4.400;2022-08-05T03:43:22;12.20;;;5.95;;
21492;SDS011;10908;50.690;4.400;2022-08-05T03:45:51;13.32;;;6.80;;
21492;SDS011;10908;50.690;4.400;2022-08-05T03:48:18;14.20;;;6.30;;
21492;SDS011;10908;50.690;4.400;2022-08-05T03:53:33;15.05;;;5.93;;
21492;SDS011;10908;50.690;4.400;2022-08-05T03:56:04;12.40;;;5.97;;
21492;SDS011;10908;50.690;4.400;2022-08-05T03:58:35;12.40;;;6.40;;
21492;SDS011;10908;50.690;4.400;2022-08-05T04:01:03;15.25;;;6.60;;
21492;SDS011;10908;50.690;4.400;2022-08-05T04:03:32;14.95;;;6.72;;
21492;SDS011;10908;50.690;4.400;2022-08-05T04:06:02;13.15;;;6.90;;
21492;SDS011;10908;50.690;4.400;2022-08-05T04:08:29;13.55;;;6.60;;
21492;SDS011;10908;50.690;4.400;2022-08-05T04:10:58;11.73;;;6.53;;
21492;SDS011;10908;50.690;4.400;2022-08-05T04:13:26;15.73;;;6.70;;
21492;SDS011;10908;50.690;4.400;2022-08-05T04:15:53;16.08;;;6.70;;
21492;SDS011;10908;50.690;4.400;2022-08-05T04:18:21;13.77;;;6.13;;
21492;SDS011;10908;50.690;4.400;2022-08-05T04:20:51;12.55;;;7.00;;
21492;SDS011;10908;50.690;4.400;2022-08-05T04:23:19;15.85;;;7.50;;
21492;SDS011;10908;50.690;4.400;2022-08-05T04:25:49;15.07;;;7.07;;
21492;SDS011;10908;50.690;4.400;2022-08-05T04:28:15;14.95;;;6.95;;
21492;SDS011;10908;50.690;4.400;2022-08-05T04:30:41;14.60;;;7.25;;
21492;SDS011;10908;50.690;4.400;2022-08-05T04:33:06;16.77;;;8.45;;
21492;SDS011;10908;50.690;4.400;2022-08-05T04:35:32;16.05;;;6.78;;
21492;SDS011;10908;50.690;4.400;2022-08-05T04:37:57;18.95;;;7.55;;
21492;SDS011;10908;50.690;4.400;2022-08-05T04:40:23;16.75;;;7.25;;
21492;SDS011;10908;50.690;4.400;2022-08-05T04:42:49;17.63;;;7.35;;
21492;SDS011;10908;50.690;4.400;2022-08-05T04:45:15;15.68;;;8.10;;
21492;SDS011;10908;50.690;4.400;2022-08-05T04:47:40;14.63;;;7.53;;
21492;SDS011;10908;50.690;4.400;2022-08-05T04:50:07;12.45;;;6.60;;
21492;SDS011;10908;50.690;4.400;2022-08-05T04:52:33;16.88;;;7.03;;
21492;SDS011;10908;50.690;4.400;2022-08-05T04:54:58;15.88;;;7.35;;
21492;SDS011;10908;50.690;4.400;2022-08-05T04:57:24;16.35;;;7.65;;
21492;SDS011;10908;50.690;4.400;2022-08-05T04:59:50;17.27;;;7.88;;
21492;SDS011;10908;50.690;4.400;2022-08-05T05:02:16;14.57;;;7.13;;
21492;SDS011;10908;50.690;4.400;2022-08-05T05:04:42;15.32;;;7.65;;
21492;SDS011;10908;50.690;4.400;2022-08-05T05:07:07;15.52;;;7.68;;
21492;SDS011;10908;50.690;4.400;2022-08-05T05:09:33;16.90;;;8.20;;
21492;SDS011;10908;50.690;4.400;2022-08-05T05:11:58;17.55;;;7.40;;
21492;SDS011;10908;50.690;4.400;2022-08-05T05:14:25;16.30;;;7.57;;
21492;SDS011;10908;50.690;4.400;2022-08-05T05:16:51;14.48;;;7.68;;
21492;SDS011;10908;50.690;4.400;2022-08-05T05:19:16;16.17;;;7.53;;
21492;SDS011;10908;50.690;4.400;2022-08-05T05:21:42;19.05;;;7.38;;
21492;SDS011;10908;50.690;4.400;2022-08-05T05:24:08;14.40;;;7.10;;
21492;SDS011;10908;50.690;4.400;2022-08-05T05:26:34;13.38;;;7.03;;
21492;SDS011;10908;50.690;4.400;2022-08-05T05:28:59;14.60;;;6.63;;
21492;SDS011;10908;50.690;4.400;2022-08-05T05:31:26;12.95;;;6.70;;
21492;SDS011;10908;50.690;4.400;2022-08-05T05:33:51;17.27;;;7.13;;
21492;SDS011;10908;50.690;4.400;2022-08-05T05:36:17;11.00;;;6.35;;
21492;SDS011;10908;50.690;4.400;2022-08-05T05:38:42;14.27;;;6.60;;
21492;SDS011;10908;50.690;4.400;2022-08-05T05:41:08;13.55;;;6.65;;
21492;SDS011;10908;50.690;4.400;2022-08-05T05:43:34;14.88;;;6.53;;
21492;SDS011;10908;50.690;4.400;2022-08-05T05:45:59;12.57;;;6.80;;
21492;SDS011;10908;50.690;4.400;2022-08-05T05:48:25;12.38;;;6.78;;
21492;SDS011;10908;50.690;4.400;2022-08-05T05:50:50;13.63;;;6.70;;
21492;SDS011;10908;50.690;4.400;2022-08-05T05:53:16;13.05;;;6.32;;
21492;SDS011;10908;50.690;4.400;2022-08-05T05:55:42;16.05;;;7.47;;
21492;SDS011;10908;50.690;4.400;2022-08-05T05:58:07;11.32;;;5.75;;
21492;SDS011;10908;50.690;4.400;2022-08-05T06:00:33;13.30;;;6.30;;
21492;SDS011;10908;50.690;4.400;2022-08-05T06:02:59;14.02;;;6.38;;
21492;SDS011;10908;50.690;4.400;2022-08-05T06:05:26;13.75;;;6.53;;
21492;SDS011;10908;50.690;4.400;2022-08-05T06:07:52;13.38;;;6.05;;
21492;SDS011;10908;50.690;4.400;2022-08-05T06:10:17;17.48;;;6.53;;
21492;SDS011;10908;50.690;4.400;2022-08-05T06:12:43;13.18;;;6.80;;
21492;SDS011;10908;50.690;4.400;2022-08-05T06:15:09;20.00;;;6.45;;
21492;SDS011;10908;50.690;4.400;2022-08-05T06:17:34;12.93;;;6.65;;
21492;SDS011;10908;50.690;4.400;2022-08-05T06:20:01;13.68;;;6.35;;
21492;SDS011;10908;50.690;4.400;2022-08-05T06:22:29;15.55;;;6.38;;
21492;SDS011;10908;50.690;4.400;2022-08-05T06:24:56;15.20;;;6.03;;
21492;SDS011;10908;50.690;4.400;2022-08-05T06:27:22;17.00;;;6.32;;
21492;SDS011;10908;50.690;4.400;2022-08-05T06:29:48;13.05;;;6.00;;
21492;SDS011;10908;50.690;4.400;2022-08-05T06:32:14;17.65;;;6.45;;
21492;SDS011;10908;50.690;4.400;2022-08-05T06:34:40;14.80;;;6.65;;
21492;SDS011;10908;50.690;4.400;2022-08-05T06:37:06;15.88;;;5.95;;
21492;SDS011;10908;50.690;4.400;2022-08-05T06:39:32;12.55;;;5.68;;
21492;SDS011;10908;50.690;4.400;2022-08-05T06:41:58;12.10;;;5.82;;
21492;SDS011;10908;50.690;4.400;2022-08-05T06:44:26;18.15;;;7.28;;
21492;SDS011;10908;50.690;4.400;2022-08-05T06:46:52;15.68;;;5.88;;
21492;SDS011;10908;50.690;4.400;2022-08-05T06:49:18;14.38;;;6.03;;
21492;SDS011;10908;50.690;4.400;2022-08-05T06:51:44;14.43;;;6.13;;
21492;SDS011;10908;50.690;4.400;2022-08-05T06:54:09;13.43;;;5.70;;
21492;SDS011;10908;50.690;4.400;2022-08-05T06:56:35;13.90;;;5.78;;
21492;SDS011;10908;50.690;4.400;2022-08-05T06:59:02;13.77;;;5.38;;
21492;SDS011;10908;50.690;4.400;2022-08-05T07:01:28;11.70;;;6.10;;
21492;SDS011;10908;50.690;4.400;2022-08-05T07:03:54;15.10;;;6.10;;
21492;SDS011;10908;50.690;4.400;2022-08-05T07:06:20;13.75;;;5.75;;
21492;SDS011;10908;50.690;4.400;2022-08-05T07:08:47;16.00;;;5.75;;
21492;SDS011;10908;50.690;4.400;2022-08-05T07:11:12;15.18;;;6.03;;
21492;SDS011;10908;50.690;4.400;2022-08-05T07:13:38;17.88;;;5.88;;
21492;SDS011;10908;50.690;4.400;2022-08-05T07:16:22;16.48;;;5.75;;
21492;SDS011;10908;50.690;4.400;2022-08-05T07:19:07;12.88;;;5.70;;
21492;SDS011;10908;50.690;4.400;2022-08-05T07:21:32;15.43;;;5.72;;
21492;SDS011;10908;50.690;4.400;2022-08-05T07:23:58;10.40;;;5.95;;
21492;SDS011;10908;50.690;4.400;2022-08-05T07:26:23;12.63;;;5.78;;
21492;SDS011;10908;50.690;4.400;2022-08-05T07:28:49;12.57;;;5.68;;
21492;SDS011;10908;50.690;4.400;2022-08-05T07:31:15;11.35;;;5.47;;
21492;SDS011;10908;50.690;4.400;2022-08-05T07:33:41;14.77;;;5.47;;
21492;SDS011;10908;50.690;4.400;2022-08-05T07:36:07;14.88;;;5.95;;
21492;SDS011;10908;50.690;4.400;2022-08-05T07:38:33;14.18;;;5.50;;
21492;SDS011;10908;50.690;4.400;2022-08-05T07:41:01;12.63;;;5.53;;
21492;SDS011;10908;50.690;4.400;2022-08-05T07:43:28;17.55;;;6.07;;
21492;SDS011;10908;50.690;4.400;2022-08-05T07:45:54;12.52;;;5.95;;
21492;SDS011;10908;50.690;4.400;2022-08-05T07:48:19;14.90;;;5.60;;
21492;SDS011;10908;50.690;4.400;2022-08-05T07:50:45;16.00;;;6.20;;
21492;SDS011;10908;50.690;4.400;2022-08-05T07:53:10;12.38;;;6.25;;
21492;SDS011;10908;50.690;4.400;2022-08-05T07:55:36;14.73;;;6.85;;
21492;SDS011;10908;50.690;4.400;2022-08-05T07:58:02;19.90;;;7.70;;
21492;SDS011;10908;50.690;4.400;2022-08-05T08:00:27;14.57;;;5.80;;
21492;SDS011;10908;50.690;4.400;2022-08-05T08:02:53;13.55;;;5.75;;
21492;SDS011;10908;50.690;4.400;2022-08-05T08:05:19;14.68;;;5.75;;
21492;SDS011;10908;50.690;4.400;2022-08-05T08:07:44;16.98;;;6.38;;
21492;SDS011;10908;50.690;4.400;2022-08-05T08:10:10;15.38;;;5.95;;
21492;SDS011;10908;50.690;4.400;2022-08-05T08:12:36;12.15;;;5.63;;
21492;SDS011;10908;50.690;4.400;2022-08-05T08:15:02;13.43;;;5.32;;
21492;SDS011;10908;50.690;4.400;2022-08-05T08:17:29;14.07;;;5.32;;
21492;SDS011;10908;50.690;4.400;2022-08-05T08:19:55;16.90;;;6.43;;
21492;SDS011;10908;50.690;4.400;2022-08-05T08:22:24;14.32;;;5.38;;
21492;SDS011;10908;50.690;4.400;2022-08-05T08:24:50;13.02;;;5.53;;
21492;SDS011;10908;50.690;4.400;2022-08-05T08:27:17;13.10;;;5.90;;
21492;SDS011;10908;50.690;4.400;2022-08-05T08:29:42;12.77;;;5.90;;
21492;SDS011;10908;50.690;4.400;2022-08-05T08:32:08;14.25;;;5.70;;
21492;SDS011;10908;50.690;4.400;2022-08-05T08:34:34;11.20;;;5.50;;
21492;SDS011;10908;50.690;4.400;2022-08-05T08:37:00;14.98;;;6.28;;
21492;SDS011;10908;50.690;4.400;2022-08-05T08:39:26;12.65;;;4.53;;
21492;SDS011;10908;50.690;4.400;2022-08-05T08:41:52;11.07;;;4.70;;
21492;SDS011;10908;50.690;4.400;2022-08-05T08:44:20;10.13;;;4.10;;
21492;SDS011;10908;50.690;4.400;2022-08-05T08:46:48;10.82;;;4.20;;
21492;SDS011;10908;50.690;4.400;2022-08-05T08:49:15;11.13;;;3.65;;
21492;SDS011;10908;50.690;4.400;2022-08-05T08:51:47;14.55;;;3.58;;
21492;SDS011;10908;50.690;4.400;2022-08-05T08:54:17;8.90;;;2.90;;
21492;SDS011;10908;50.690;4.400;2022-08-05T08:56:43;11.85;;;3.53;;
21492;SDS011;10908;50.690;4.400;2022-08-05T08:59:09;13.65;;;4.40;;
21492;SDS011;10908;50.690;4.400;2022-08-05T09:01:35;14.10;;;4.55;;
21492;SDS011;10908;50.690;4.400;2022-08-05T09:04:01;12.15;;;4.00;;
21492;SDS011;10908;50.690;4.400;2022-08-05T09:06:28;12.52;;;4.32;;
21492;SDS011;10908;50.690;4.400;2022-08-05T09:08:55;11.55;;;4.22;;
21492;SDS011;10908;50.690;4.400;2022-08-05T09:11:22;9.00;;;3.63;;
21492;SDS011;10908;50.690;4.400;2022-08-05T09:13:48;9.32;;;3.60;;
21492;SDS011;10908;50.690;4.400;2022-08-05T09:16:15;10.68;;;4.50;;
21492;SDS011;10908;50.690;4.400;2022-08-05T09:18:40;10.18;;;3.70;;
21492;SDS011;10908;50.690;4.400;2022-08-05T09:21:08;12.05;;;3.35;;
21492;SDS011;10908;50.690;4.400;2022-08-05T09:23:34;7.32;;;3.30;;
21492;SDS011;10908;50.690;4.400;2022-08-05T09:26:05;10.25;;;3.70;;
21492;SDS011;10908;50.690;4.400;2022-08-05T09:28:33;12.90;;;3.47;;
21492;SDS011;10908;50.690;4.400;2022-08-05T09:31:01;13.90;;;3.95;;
21492;SDS011;10908;50.690;4.400;2022-08-05T09:33:45;11.65;;;3.30;;
21492;SDS011;10908;50.690;4.400;2022-08-05T09:36:19;10.77;;;3.55;;
21492;SDS011;10908;50.690;4.400;2022-08-05T09:38:58;11.40;;;3.45;;
21492;SDS011;10908;50.690;4.400;2022-08-05T09:41:26;8.48;;;3.00;;
21492;SDS011;10908;50.690;4.400;2022-08-05T09:43:52;8.77;;;2.75;;
21492;SDS011;10908;50.690;4.400;2022-08-05T09:46:27;7.00;;;2.40;;
21492;SDS011;10908;50.690;4.400;2022-08-05T09:48:58;12.38;;;2.80;;
21492;SDS011;10908;50.690;4.400;2022-08-05T09:51:35;7.35;;;2.40;;
21492;SDS011;10908;50.690;4.400;2022-08-05T09:54:02;7.22;;;2.50;;
21492;SDS011;10908;50.690;4.400;2022-08-05T09:56:35;7.75;;;2.50;;
21492;SDS011;10908;50.690;4.400;2022-08-05T10:01:32;7.25;;;2.30;;
21492;SDS011;10908;50.690;4.400;2022-08-05T10:04:02;7.50;;;1.80;;
21492;SDS011;10908;50.690;4.400;2022-08-05T10:06:30;7.72;;;2.00;;
21492;SDS011;10908;50.690;4.400;2022-08-05T10:09:09;6.78;;;2.65;;
21492;SDS011;10908;50.690;4.400;2022-08-05T10:11:40;6.47;;;2.00;;
21492;SDS011;10908;50.690;4.400;2022-08-05T10:14:26;5.57;;;2.20;;
21492;SDS011;10908;50.690;4.400;2022-08-05T10:16:53;7.35;;;2.60;;
21492;SDS011;10908;50.690;4.400;2022-08-05T10:19:20;5.63;;;2.40;;
21492;SDS011;10908;50.690;4.400;2022-08-05T10:21:50;7.68;;;2.50;;
21492;SDS011;10908;50.690;4.400;2022-08-05T10:24:19;5.93;;;2.63;;
21492;SDS011;10908;50.690;4.400;2022-08-05T10:26:46;8.27;;;2.60;;
21492;SDS011;10908;50.690;4.400;2022-08-05T10:29:14;5.15;;;2.72;;
21492;SDS011;10908;50.690;4.400;2022-08-05T10:31:42;6.47;;;2.58;;
21492;SDS011;10908;50.690;4.400;2022-08-05T10:34:08;8.75;;;2.75;;
21492;SDS011;10908;50.690;4.400;2022-08-05T10:36:35;7.47;;;2.60;;
21492;SDS011;10908;50.690;4.400;2022-08-05T10:39:13;6.75;;;2.67;;
21492;SDS011;10908;50.690;4.400;2022-08-05T10:44:22;5.72;;;2.30;;
21492;SDS011;10908;50.690;4.400;2022-08-05T10:46:50;4.60;;;1.90;;
21492;SDS011;10908;50.690;4.400;2022-08-05T10:49:20;5.53;;;2.00;;
21492;SDS011;10908;50.690;4.400;2022-08-05T10:51:49;5.95;;;2.03;;
21492;SDS011;10908;50.690;4.400;2022-08-05T10:58:06;4.30;;;1.40;;
21492;SDS011;10908;50.690;4.400;2022-08-05T11:00:33;4.50;;;1.35;;
21492;SDS011;10908;50.690;4.400;2022-08-05T11:05:31;5.75;;;1.48;;
21492;SDS011;10908;50.690;4.400;2022-08-05T11:07:59;4.82;;;1.20;;
21492;SDS011;10908;50.690;4.400;2022-08-05T11:10:26;5.35;;;1.08;;
21492;SDS011;10908;50.690;4.400;2022-08-05T11:12:52;7.88;;;0.98;;
21492;SDS011;10908;50.690;4.400;2022-08-05T11:20:47;4.32;;;1.17;;
21492;SDS011;10908;50.690;4.400;2022-08-05T11:23:41;4.90;;;1.15;;
21492;SDS011;10908;50.690;4.400;2022-08-05T11:28:45;3.20;;;1.02;;
21492;SDS011;10908;50.690;4.400;2022-08-05T11:33:38;4.25;;;1.10;;
21492;SDS011;10908;50.690;4.400;2022-08-05T11:36:10;3.22;;;1.15;;
21492;SDS011;10908;50.690;4.400;2022-08-05T11:43:42;5.18;;;1.38;;
21492;SDS011;10908;50.690;4.400;2022-08-05T11:46:30;4.60;;;1.10;;
21492;SDS011;10908;50.690;4.400;2022-08-05T11:49:01;5.28;;;1.33;;
21492;SDS011;10908;50.690;4.400;2022-08-05T11:51:28;4.13;;;1.20;;
21492;SDS011;10908;50.690;4.400;2022-08-05T11:53:55;4.65;;;1.25;;
21492;SDS011;10908;50.690;4.400;2022-08-05T11:56:21;5.20;;;1.00;;
21492;SDS011;10908;50.690;4.400;2022-08-05T11:58:47;7.55;;;1.15;;
21492;SDS011;10908;50.690;4.400;2022-08-05T12:01:20;2.80;;;0.90;;
21492;SDS011;10908;50.690;4.400;2022-08-05T12:03:47;3.53;;;1.25;;
21492;SDS011;10908;50.690;4.400;2022-08-05T12:06:23;5.20;;;1.50;;
21492;SDS011;10908;50.690;4.400;2022-08-05T12:11:22;5.18;;;1.17;;
21492;SDS011;10908;50.690;4.400;2022-08-05T12:16:22;4.18;;;1.15;;
21492;SDS011;10908;50.690;4.400;2022-08-05T12:18:50;4.63;;;1.10;;
21492;SDS011;10908;50.690;4.400;2022-08-05T12:21:17;3.50;;;1.10;;
21492;SDS011;10908;50.690;4.400;2022-08-05T12:26:19;5.03;;;1.20;;
21492;SDS011;10908;50.690;4.400;2022-08-05T12:28:44;6.47;;;1.30;;
21492;SDS011;10908;50.690;4.400;2022-08-05T12:31:10;5.18;;;0.98;;
21492;SDS011;10908;50.690;4.400;2022-08-05T12:33:36;3.58;;;1.10;;
21492;SDS011;10908;50.690;4.400;2022-08-05T12:36:02;6.00;;;1.00;;
21492;SDS011;10908;50.690;4.400;2022-08-05T12:38:29;6.85;;;1.02;;
21492;SDS011;10908;50.690;4.400;2022-08-05T12:40:55;3.85;;;0.80;;
21492;SDS011;10908;50.690;4.400;2022-08-05T12:43:21;6.28;;;1.00;;
21492;SDS011;10908;50.690;4.400;2022-08-05T12:45:50;5.00;;;1.00;;
21492;SDS011;10908;50.690;4.400;2022-08-05T12:48:16;6.82;;;0.95;;
21492;SDS011;10908;50.690;4.400;2022-08-05T12:50:42;4.93;;;0.75;;
21492;SDS011;10908;50.690;4.400;2022-08-05T12:53:08;2.78;;;0.90;;
21492;SDS011;10908;50.690;4.400;2022-08-05T12:55:40;6.45;;;0.98;;
21492;SDS011;10908;50.690;4.400;2022-08-05T12:58:06;4.70;;;0.90;;
21492;SDS011;10908;50.690;4.400;2022-08-05T13:00:32;3.63;;;0.70;;
21492;SDS011;10908;50.690;4.400;2022-08-05T13:02:59;4.03;;;0.80;;
21492;SDS011;10908;50.690;4.400;2022-08-05T13:05:25;3.75;;;0.80;;
21492;SDS011;10908;50.690;4.400;2022-08-05T13:07:51;4.65;;;0.90;;
21492;SDS011;10908;50.690;4.400;2022-08-05T13:10:22;3.47;;;1.15;;
21492;SDS011;10908;50.690;4.400;2022-08-05T13:12:48;4.30;;;0.90;;
21492;SDS011;10908;50.690;4.400;2022-08-05T13:15:13;4.85;;;0.73;;
21492;SDS011;10908;50.690;4.400;2022-08-05T13:17:39;3.85;;;0.80;;
21492;SDS011;10908;50.690;4.400;2022-08-05T13:22:33;6.65;;;0.88;;
21492;SDS011;10908;50.690;4.400;2022-08-05T13:25:00;3.90;;;0.80;;
21492;SDS011;10908;50.690;4.400;2022-08-05T13:29:56;6.88;;;0.90;;
21492;SDS011;10908;50.690;4.400;2022-08-05T13:32:22;5.05;;;0.95;;
21492;SDS011;10908;50.690;4.400;2022-08-05T13:34:49;2.80;;;0.57;;
21492;SDS011;10908;50.690;4.400;2022-08-05T13:37:19;4.15;;;0.65;;
21492;SDS011;10908;50.690;4.400;2022-08-05T13:39:49;5.35;;;0.70;;
21492;SDS011;10908;50.690;4.400;2022-08-05T13:42:17;3.50;;;0.80;;
21492;SDS011;10908;50.690;4.400;2022-08-05T13:44:45;3.30;;;0.60;;
21492;SDS011;10908;50.690;4.400;2022-08-05T13:47:14;7.80;;;0.88;;
21492;SDS011;10908;50.690;4.400;2022-08-05T13:49:40;5.85;;;0.80;;
21492;SDS011;10908;50.690;4.400;2022-08-05T13:52:12;4.78;;;1.35;;
21492;SDS011;10908;50.690;4.400;2022-08-05T13:54:39;3.92;;;0.60;;
21492;SDS011;10908;50.690;4.400;2022-08-05T13:57:06;3.92;;;0.68;;
21492;SDS011;10908;50.690;4.400;2022-08-05T13:59:36;1.88;;;0.43;;
21492;SDS011;10908;50.690;4.400;2022-08-05T14:02:03;3.03;;;0.55;;
21492;SDS011;10908;50.690;4.400;2022-08-05T14:04:30;3.15;;;0.45;;
21492;SDS011;10908;50.690;4.400;2022-08-05T14:07:23;2.28;;;0.50;;
21492;SDS011;10908;50.690;4.400;2022-08-05T14:09:56;3.72;;;0.70;;
21492;SDS011;10908;50.690;4.400;2022-08-05T14:12:23;2.58;;;0.50;;
21492;SDS011;10908;50.690;4.400;2022-08-05T14:14:49;4.35;;;0.70;;
21492;SDS011;10908;50.690;4.400;2022-08-05T14:17:14;3.42;;;0.90;;
21492;SDS011;10908;50.690;4.400;2022-08-05T14:19:41;3.83;;;0.77;;
21492;SDS011;10908;50.690;4.400;2022-08-05T14:22:06;3.63;;;0.70;;
21492;SDS011;10908;50.690;4.400;2022-08-05T14:24:32;3.72;;;0.63;;
21492;SDS011;10908;50.690;4.400;2022-08-05T14:26:58;3.33;;;0.90;;
21492;SDS011;10908;50.690;4.400;2022-08-05T14:29:23;4.63;;;0.75;;
21492;SDS011;10908;50.690;4.400;2022-08-05T14:31:49;3.80;;;0.80;;
21492;SDS011;10908;50.690;4.400;2022-08-05T14:34:15;4.75;;;0.70;;
21492;SDS011;10908;50.690;4.400;2022-08-05T14:36:40;2.50;;;0.60;;
21492;SDS011;10908;50.690;4.400;2022-08-05T14:39:06;2.90;;;0.60;;
21492;SDS011;10908;50.690;4.400;2022-08-05T14:41:33;4.13;;;0.70;;
21492;SDS011;10908;50.690;4.400;2022-08-05T14:43:59;3.70;;;0.70;;
21492;SDS011;10908;50.690;4.400;2022-08-05T14:46:26;2.97;;;0.55;;
21492;SDS011;10908;50.690;4.400;2022-08-05T14:48:52;6.13;;;0.80;;
21492;SDS011;10908;50.690;4.400;2022-08-05T14:51:18;3.25;;;0.60;;
21492;SDS011;10908;50.690;4.400;2022-08-05T14:53:45;3.88;;;0.57;;
21492;SDS011;10908;50.690;4.400;2022-08-05T14:56:12;3.63;;;0.57;;
21492;SDS011;10908;50.690;4.400;2022-08-05T14:58:37;2.53;;;0.45;;
21492;SDS011;10908;50.690;4.400;2022-08-05T15:01:03;2.30;;;0.57;;
21492;SDS011;10908;50.690;4.400;2022-08-05T15:03:29;1.92;;;0.50;;
21492;SDS011;10908;50.690;4.400;2022-08-05T15:05:55;1.83;;;0.50;;
21492;SDS011;10908;50.690;4.400;2022-08-05T15:08:21;2.92;;;0.50;;
21492;SDS011;10908;50.690;4.400;2022-08-05T15:10:47;2.28;;;0.60;;
21492;SDS011;10908;50.690;4.400;2022-08-05T15:13:12;4.18;;;0.50;;
21492;SDS011;10908;50.690;4.400;2022-08-05T15:15:38;6.47;;;0.60;;
21492;SDS011;10908;50.690;4.400;2022-08-05T15:18:04;2.33;;;0.50;;
21492;SDS011;10908;50.690;4.400;2022-08-05T15:20:30;3.05;;;0.50;;
21492;SDS011;10908;50.690;4.400;2022-08-05T15:23:01;2.45;;;0.50;;
21492;SDS011;10908;50.690;4.400;2022-08-05T15:25:28;2.85;;;0.40;;
21492;SDS011;10908;50.690;4.400;2022-08-05T15:27:54;3.25;;;0.52;;
21492;SDS011;10908;50.690;4.400;2022-08-05T15:30:20;2.72;;;0.60;;
21492;SDS011;10908;50.690;4.400;2022-08-05T15:32:45;3.58;;;0.50;;
21492;SDS011;10908;50.690;4.400;2022-08-05T15:35:11;2.83;;;0.60;;
21492;SDS011;10908;50.690;4.400;2022-08-05T15:37:37;2.88;;;0.68;;
21492;SDS011;10908;50.690;4.400;2022-08-05T15:40:02;2.75;;;0.50;;